createdAt,value
2016-05-19T00:00:46.854Z,0
2016-05-19T00:02:01.059Z,0
2016-05-19T00:02:46.906Z,0
2016-05-19T00:03:46.924Z,0
2016-05-19T00:05:00.833Z,0
2016-05-19T00:05:46.976Z,0
2016-05-19T00:07:01.181Z,0
2016-05-19T00:08:01.044Z,0
2016-05-19T00:08:46.906Z,0
2016-05-19T00:09:47.065Z,0
2016-05-19T00:11:01.272Z,0
2016-05-19T00:11:46.961Z,0
2016-05-19T00:12:46.823Z,0
2016-05-19T00:13:47.155Z,0
2016-05-19T00:14:47.189Z,0
2016-05-19T00:16:01.378Z,0
2016-05-19T00:16:47.084Z,0
2016-05-19T00:17:47.244Z,0
2016-05-19T00:19:47.139Z,0
2016-05-19T00:20:47.329Z,0
2016-05-19T00:22:01.379Z,0
2016-05-19T00:22:47.366Z,0
2016-05-19T00:23:47.118Z,0
2016-05-19T00:24:47.419Z,0
2016-05-19T00:25:47.296Z,0
2016-05-19T00:26:47.454Z,0
2016-05-19T00:27:47.176Z,0
2016-05-19T00:28:47.210Z,0
2016-05-19T00:29:47.541Z,0
2016-05-19T00:30:47.543Z,0
2016-05-19T00:31:47.578Z,0
2016-05-19T00:32:47.455Z,0
2016-05-19T00:33:47.645Z,0
2016-05-19T00:34:47.648Z,0
2016-05-19T00:35:47.698Z,0
2016-05-19T00:36:47.701Z,0
2016-05-19T00:37:47.734Z,0
2016-05-19T00:38:48.409Z,0
2016-05-19T00:39:47.615Z,0
2016-05-19T00:40:47.789Z,0
2016-05-19T00:42:01.995Z,0
2016-05-19T00:43:02.014Z,0
2016-05-19T00:43:47.875Z,0
2016-05-19T00:44:47.894Z,0
2016-05-19T00:45:47.912Z,0
2016-05-19T00:46:47.633Z,0
2016-05-19T00:48:01.980Z,0
2016-05-19T00:48:47.999Z,0
2016-05-19T00:49:48.047Z,0
2016-05-19T00:50:48.035Z,0
2016-05-19T00:51:48.069Z,0
2016-05-19T00:52:48.071Z,0
2016-05-19T00:54:02.293Z,0
2016-05-19T00:55:02.155Z,0
2016-05-19T00:56:02.330Z,0
2016-05-19T00:56:48.177Z,0
2016-05-19T00:57:48.194Z,0
2016-05-19T00:59:02.400Z,0
2016-05-19T01:00:02.435Z,0
2016-05-19T01:00:47.952Z,0
2016-05-19T01:01:48.283Z,0
2016-05-19T01:02:48.301Z,0
2016-05-19T01:03:48.335Z,0
2016-05-19T01:04:48.198Z,0
2016-05-19T01:05:48.357Z,0
2016-05-19T01:07:02.593Z,0
2016-05-19T01:07:48.253Z,0
2016-05-19T01:08:48.303Z,0
2016-05-19T01:10:02.648Z,0
2016-05-19T01:10:48.339Z,0
2016-05-19T01:12:02.700Z,0
2016-05-19T01:12:48.531Z,0
2016-05-19T01:13:48.409Z,0
2016-05-19T01:14:48.569Z,0
2016-05-19T01:15:48.446Z,0
2016-05-19T01:16:48.464Z,0
2016-05-19T01:18:48.673Z,0
2016-05-19T01:19:48.691Z,0
2016-05-19T01:20:48.709Z,0
2016-05-19T01:22:02.931Z,0
2016-05-19T01:22:48.762Z,0
2016-05-19T01:24:48.798Z,0
2016-05-19T01:26:03.004Z,0
2016-05-19T01:26:48.694Z,0
2016-05-19T01:27:48.869Z,0
2016-05-19T01:28:48.902Z,0
2016-05-19T01:29:48.921Z,0
2016-05-19T01:30:48.940Z,0
2016-05-19T01:33:48.870Z,0
2016-05-19T01:36:49.096Z,0
2016-05-19T01:37:49.114Z,0
2016-05-19T01:38:49.837Z,0
2016-05-19T01:39:49.166Z,0
2016-05-19T01:40:49.013Z,0
2016-05-19T01:42:03.391Z,0
2016-05-19T01:42:49.222Z,0
2016-05-19T01:43:49.240Z,0
2016-05-19T01:44:49.275Z,0
2016-05-19T01:45:49.136Z,0
2016-05-19T01:47:03.498Z,0
2016-05-19T01:48:03.516Z,0
2016-05-19T01:48:49.363Z,0
2016-05-19T01:49:49.397Z,0
2016-05-19T01:51:03.603Z,0
2016-05-19T01:51:49.293Z,0
2016-05-19T01:52:49.467Z,0
2016-05-19T01:53:50.127Z,0
2016-05-19T01:54:49.504Z,0
2016-05-19T01:55:49.522Z,0
2016-05-19T01:57:03.728Z,0
2016-05-19T01:57:49.559Z,0
2016-05-19T01:58:49.593Z,0
2016-05-19T01:59:49.455Z,0
2016-05-19T02:01:49.351Z,0
2016-05-19T02:02:49.525Z,0
2016-05-19T02:04:03.887Z,0
2016-05-19T02:05:03.907Z,0
2016-05-19T02:05:49.752Z,0
2016-05-19T02:06:49.614Z,0
2016-05-19T02:07:49.648Z,0
2016-05-19T02:08:50.135Z,0
2016-05-19T02:09:49.685Z,0
2016-05-19T02:10:49.876Z,0
2016-05-19T02:11:49.893Z,0
2016-05-19T02:12:49.756Z,0
2016-05-19T02:13:49.931Z,0
2016-05-19T02:14:49.964Z,0
2016-05-19T02:15:49.998Z,0
2016-05-19T02:16:49.844Z,0
2016-05-19T02:18:50.053Z,0
2016-05-19T02:19:50.071Z,0
2016-05-19T02:21:04.277Z,0
2016-05-19T02:21:50.124Z,0
2016-05-19T02:23:04.547Z,0
2016-05-19T02:23:50.097Z,0
2016-05-19T02:24:50.030Z,0
2016-05-19T02:25:50.205Z,0
2016-05-19T02:26:49.926Z,0
2016-05-19T02:27:50.100Z,0
2016-05-19T02:29:04.463Z,0
2016-05-19T02:29:50.310Z,0
2016-05-19T02:30:50.171Z,0
2016-05-19T02:31:50.346Z,0
2016-05-19T02:32:50.363Z,0
2016-05-19T02:33:50.398Z,0
2016-05-19T02:35:04.604Z,0
2016-05-19T02:35:50.451Z,4
2016-05-19T02:36:50.468Z,4
2016-05-19T02:37:50.502Z,0
2016-05-19T02:38:50.880Z,0
2016-05-19T02:40:50.429Z,4
2016-05-19T02:42:04.678Z,4
2016-05-19T02:42:50.552Z,4
2016-05-19T02:43:50.787Z,4
2016-05-19T02:45:05.036Z,4
2016-05-19T02:45:50.907Z,4
2016-05-19T02:47:05.129Z,4
2016-05-19T02:47:50.974Z,4
2016-05-19T02:48:51.009Z,4
2016-05-19T02:50:05.245Z,8
2016-05-19T02:50:51.084Z,8
2016-05-19T02:52:05.297Z,8
2016-05-19T02:52:51.149Z,8
2016-05-19T02:54:51.197Z,12
2016-05-19T02:55:51.234Z,12
2016-05-19T02:56:51.254Z,16
2016-05-19T02:57:51.118Z,16
2016-05-19T02:58:51.295Z,16
2016-05-19T03:01:05.382Z,20
2016-05-19T03:01:51.213Z,24
2016-05-19T03:02:51.091Z,24
2016-05-19T03:03:51.423Z,28
2016-05-19T03:04:51.442Z,28
2016-05-19T03:05:51.305Z,32
2016-05-19T03:07:05.683Z,36
2016-05-19T03:07:51.357Z,36
2016-05-19T03:08:51.392Z,40
2016-05-19T03:09:51.566Z,40
2016-05-19T03:11:05.772Z,44
2016-05-19T03:11:51.447Z,48
2016-05-19T03:12:51.309Z,48
2016-05-19T03:13:51.656Z,56
2016-05-19T03:14:51.675Z,56
2016-05-19T03:15:51.536Z,60
2016-05-19T03:17:05.899Z,64
2016-05-19T03:17:51.605Z,64
2016-05-19T03:18:51.779Z,68
2016-05-19T03:19:51.797Z,72
2016-05-19T03:20:51.816Z,80
2016-05-19T03:22:06.021Z,84
2016-05-19T03:22:51.868Z,88
2016-05-19T03:23:51.729Z,92
2016-05-19T03:24:51.935Z,96
2016-05-19T03:27:51.818Z,112
2016-05-19T03:28:51.993Z,116
2016-05-19T03:29:52.027Z,124
2016-05-19T03:30:52.029Z,128
2016-05-19T03:32:06.235Z,136
2016-05-19T03:32:52.098Z,140
2016-05-19T03:33:52.116Z,148
2016-05-19T03:34:52.135Z,156
2016-05-19T03:35:52.153Z,164
2016-05-19T03:36:52.187Z,172
2016-05-19T03:39:06.519Z,188
2016-05-19T03:39:52.101Z,192
2016-05-19T03:40:52.275Z,196
2016-05-19T03:41:52.294Z,208
2016-05-19T03:43:06.514Z,212
2016-05-19T03:44:52.380Z,228
2016-05-19T03:45:52.382Z,240
2016-05-19T03:46:52.244Z,244
2016-05-19T03:47:52.435Z,252
2016-05-19T03:48:52.453Z,264
2016-05-19T03:49:52.316Z,272
2016-05-19T03:50:52.490Z,276
2016-05-19T03:52:06.711Z,288
2016-05-19T03:52:52.542Z,296
2016-05-19T03:53:52.577Z,300
2016-05-19T03:54:52.594Z,312
2016-05-19T03:55:52.613Z,320
2016-05-19T03:56:52.474Z,332
2016-05-19T03:57:52.649Z,344
2016-05-19T03:58:52.699Z,360
2016-05-19T03:59:52.732Z,372
2016-05-19T04:00:52.579Z,384
2016-05-19T04:01:52.753Z,396
2016-05-19T04:02:52.772Z,408
2016-05-19T04:04:06.821Z,420
2016-05-19T04:04:52.668Z,424
2016-05-19T04:06:52.876Z,448
2016-05-19T04:07:52.582Z,456
2016-05-19T04:08:53.257Z,468
2016-05-19T04:09:52.776Z,480
2016-05-19T04:10:52.965Z,496
2016-05-19T04:12:07.000Z,516
2016-05-19T04:12:53.003Z,528
2016-05-19T04:13:53.020Z,540
2016-05-19T04:14:53.069Z,560
2016-05-19T04:15:53.072Z,572
2016-05-19T04:16:53.091Z,592
2016-05-19T04:17:53.109Z,604
2016-05-19T04:18:52.986Z,624
2016-05-19T04:20:07.349Z,640
2016-05-19T04:20:53.195Z,648
2016-05-19T04:21:53.073Z,652
2016-05-19T04:22:53.091Z,656
2016-05-19T04:23:53.125Z,656
2016-05-19T04:24:53.285Z,652
2016-05-19T04:26:07.490Z,636
2016-05-19T04:26:53.321Z,628
2016-05-19T04:28:07.527Z,608
2016-05-19T04:28:53.374Z,588
2016-05-19T04:29:53.407Z,580
2016-05-19T04:30:53.410Z,572
2016-05-19T04:31:53.444Z,572
2016-05-19T04:32:53.462Z,588
2016-05-19T04:33:53.324Z,608
2016-05-19T04:34:53.342Z,632
2016-05-19T04:36:07.720Z,676
2016-05-19T04:36:53.551Z,704
2016-05-19T04:37:53.584Z,744
2016-05-19T04:38:53.463Z,780
2016-05-19T04:39:53.622Z,816
2016-05-19T04:41:07.827Z,856
2016-05-19T04:42:07.706Z,892
2016-05-19T04:43:07.880Z,920
2016-05-19T04:43:53.711Z,936
2016-05-19T04:45:07.916Z,964
2016-05-19T04:45:53.778Z,976
2016-05-19T04:46:53.780Z,1000
2016-05-19T04:47:53.644Z,1032
2016-05-19T04:48:53.833Z,1056
2016-05-19T04:49:53.711Z,1088
2016-05-19T04:50:53.902Z,1124
2016-05-19T04:52:08.075Z,1168
2016-05-19T04:52:53.922Z,1200
2016-05-19T04:53:53.643Z,1232
2016-05-19T04:54:53.975Z,1268
2016-05-19T04:55:53.993Z,1296
2016-05-19T04:57:08.198Z,1332
2016-05-19T04:57:54.030Z,1352
2016-05-19T04:58:54.063Z,1384
2016-05-19T05:01:08.288Z,1440
2016-05-19T05:02:08.321Z,1460
2016-05-19T05:02:54.012Z,1468
2016-05-19T05:03:54.029Z,1484
2016-05-19T05:04:54.204Z,1500
2016-05-19T05:05:54.223Z,1520
2016-05-19T05:07:22.460Z,1556
2016-05-19T05:07:54.275Z,1572
2016-05-19T05:08:54.340Z,1604
2016-05-19T05:10:08.499Z,1648
2016-05-19T05:10:54.189Z,1672
2016-05-19T05:11:54.208Z,1704
2016-05-19T05:12:54.382Z,1732
2016-05-19T05:13:54.417Z,1764
2016-05-19T05:14:54.434Z,1792
2016-05-19T05:16:08.640Z,1832
2016-05-19T05:16:54.472Z,1852
2016-05-19T05:17:54.349Z,1876
2016-05-19T05:18:54.523Z,1896
2016-05-19T05:19:54.542Z,1916
2016-05-19T05:20:54.575Z,1932
2016-05-19T05:21:54.594Z,1948
2016-05-19T05:22:54.627Z,1964
2016-05-19T05:23:54.661Z,1988
2016-05-19T05:24:54.665Z,2020
2016-05-19T05:25:54.699Z,2052
2016-05-19T05:26:54.701Z,2084
2016-05-19T05:27:54.751Z,2116
2016-05-19T05:29:54.788Z,2172
2016-05-19T05:30:54.805Z,2212
2016-05-19T05:31:54.824Z,2252
2016-05-19T05:32:54.702Z,2304
2016-05-19T05:33:54.876Z,2348
2016-05-19T05:34:54.738Z,2392
2016-05-19T05:35:54.913Z,2436
2016-05-19T05:36:54.790Z,2472
2016-05-19T05:37:54.965Z,2500
2016-05-19T05:39:09.171Z,2532
2016-05-19T05:40:09.221Z,2556
2016-05-19T05:40:55.036Z,2580
2016-05-19T05:41:55.070Z,2612
2016-05-19T05:42:55.073Z,2648
2016-05-19T05:43:55.123Z,2684
2016-05-19T05:44:54.968Z,2724
2016-05-19T05:45:55.159Z,2752
2016-05-19T05:46:55.177Z,2784
2016-05-19T05:48:55.072Z,2836
2016-05-19T05:49:55.092Z,2860
2016-05-19T05:51:55.144Z,2916
2016-05-19T05:52:55.303Z,2948
2016-05-19T05:53:56.336Z,2984
2016-05-19T05:55:09.230Z,3028
2016-05-19T05:55:55.373Z,3056
2016-05-19T05:56:55.407Z,3100
2016-05-19T05:57:55.441Z,3140
2016-05-19T05:59:09.630Z,3192
2016-05-19T05:59:55.321Z,3212
2016-05-19T06:00:55.496Z,3236
2016-05-19T06:01:55.514Z,3240
2016-05-19T06:02:55.236Z,3244
2016-05-19T06:04:09.754Z,3256
2016-05-19T06:04:55.460Z,3260
2016-05-19T06:05:55.619Z,3272
2016-05-19T06:07:09.668Z,3288
2016-05-19T06:07:55.671Z,3292
2016-05-19T06:08:55.720Z,3296
2016-05-19T06:09:55.707Z,3296
2016-05-19T06:11:55.775Z,3280
2016-05-19T06:12:55.622Z,3276
2016-05-19T06:14:55.831Z,3316
2016-05-19T06:16:09.881Z,3380
2016-05-19T06:16:55.867Z,3420
2016-05-19T06:17:55.901Z,3480
2016-05-19T06:18:55.919Z,3544
2016-05-19T06:20:10.125Z,3624
2016-05-19T06:20:55.971Z,3672
2016-05-19T06:21:55.834Z,3744
2016-05-19T06:22:56.008Z,3812
2016-05-19T06:23:56.527Z,3880
2016-05-19T06:24:55.905Z,3948
2016-05-19T06:26:10.111Z,4032
2016-05-19T06:27:55.974Z,4136
2016-05-19T06:28:55.993Z,4184
2016-05-19T06:29:56.168Z,4216
2016-05-19T06:30:56.201Z,4248
2016-05-19T06:31:56.252Z,4280
2016-05-19T06:33:10.426Z,4344
2016-05-19T06:34:10.444Z,4416
2016-05-19T06:34:56.307Z,4476
2016-05-19T06:36:56.343Z,4676
2016-05-19T06:37:56.204Z,4788
2016-05-19T06:38:56.270Z,4900
2016-05-19T06:39:56.413Z,5012
2016-05-19T06:41:10.635Z,5164
2016-05-19T06:42:56.328Z,5400
2016-05-19T06:43:56.518Z,5564
2016-05-19T06:45:10.724Z,5800
2016-05-19T06:46:56.417Z,6160
2016-05-19T06:48:10.779Z,6400
2016-05-19T06:48:56.625Z,6520
2016-05-19T06:49:56.658Z,6672
2016-05-19T06:50:56.661Z,6808
2016-05-19T06:52:10.883Z,6976
2016-05-19T06:52:56.573Z,7096
2016-05-19T06:53:56.873Z,7276
2016-05-19T06:54:56.625Z,7504
2016-05-19T06:55:56.800Z,7772
2016-05-19T06:56:56.834Z,8072
2016-05-19T06:57:56.697Z,8428
2016-05-19T06:58:56.870Z,8836
2016-05-19T06:59:56.889Z,9280
2016-05-19T07:00:56.922Z,9744
2016-05-19T07:01:56.785Z,10152
2016-05-19T07:02:56.818Z,10508
2016-05-19T07:03:57.009Z,10784
2016-05-19T07:04:56.699Z,11076
2016-05-19T07:05:56.890Z,11448
2016-05-19T07:06:57.063Z,11776
2016-05-19T07:07:57.082Z,11944
2016-05-19T07:08:56.976Z,12048
2016-05-19T07:09:56.978Z,12008
2016-05-19T07:10:57.168Z,11948
2016-05-19T07:11:57.031Z,11844
2016-05-19T07:12:57.048Z,11796
2016-05-19T07:14:11.411Z,11796
2016-05-19T07:14:57.257Z,11856
2016-05-19T07:15:57.275Z,11880
2016-05-19T07:16:57.309Z,11900
2016-05-19T07:17:57.328Z,11960
2016-05-19T07:19:11.550Z,12188
2016-05-19T07:19:57.411Z,12376
2016-05-19T07:21:11.586Z,12712
2016-05-19T07:21:57.448Z,12980
2016-05-19T07:22:57.794Z,13332
2016-05-19T07:23:57.500Z,13848
2016-05-19T07:24:57.362Z,14408
2016-05-19T07:25:57.537Z,15204
2016-05-19T07:26:57.555Z,17088
2016-05-19T07:27:57.464Z,17248
2016-05-19T07:28:57.608Z,18016
2016-05-19T07:30:11.830Z,18080
2016-05-19T07:30:57.519Z,19264
2016-05-19T07:31:57.538Z,23712
2016-05-19T07:32:57.712Z,20288
2016-05-19T07:33:57.574Z,19904
2016-05-19T07:35:11.796Z,20256
2016-05-19T07:35:57.783Z,20544
2016-05-19T07:36:57.832Z,21056
2016-05-19T07:37:57.851Z,20672
2016-05-19T07:38:57.915Z,20032
2016-05-19T07:39:57.746Z,19424
2016-05-19T07:40:57.937Z,18208
2016-05-19T07:41:57.954Z,17312
2016-05-19T07:42:57.973Z,16864
2016-05-19T07:43:58.007Z,16672
2016-05-19T07:44:58.040Z,16384
2016-05-19T07:46:12.232Z,16224
2016-05-19T07:46:58.093Z,16256
2016-05-19T07:47:57.970Z,16416
2016-05-19T07:49:12.334Z,16672
2016-05-19T07:49:57.868Z,16960
2016-05-19T07:50:58.042Z,17216
2016-05-19T07:51:58.232Z,17312
2016-05-19T07:53:12.125Z,18048
2016-05-19T07:53:58.144Z,18912
2016-05-19T07:55:58.180Z,20640
2016-05-19T07:56:58.355Z,24288
2016-05-19T07:57:58.233Z,19904
2016-05-19T07:58:58.407Z,18848
2016-05-19T07:59:58.285Z,18624
2016-05-19T08:00:58.319Z,18400
2016-05-19T08:02:12.680Z,18304
2016-05-19T08:02:58.527Z,18368
2016-05-19T08:03:58.560Z,18976
2016-05-19T08:04:58.438Z,18912
2016-05-19T08:05:58.613Z,19168
2016-05-19T08:06:58.475Z,19648
2016-05-19T08:07:58.682Z,19712
2016-05-19T08:08:58.403Z,20672
2016-05-19T08:09:58.562Z,21120
2016-05-19T08:10:58.768Z,20544
2016-05-19T08:11:58.801Z,19776
2016-05-19T08:14:12.854Z,18848
2016-05-19T08:14:58.871Z,18880
2016-05-19T08:15:58.890Z,18880
2016-05-19T08:17:13.096Z,19488
2016-05-19T08:17:58.787Z,20448
2016-05-19T08:18:58.976Z,22080
2016-05-19T08:20:58.887Z,20896
2016-05-19T08:21:58.750Z,19616
2016-05-19T08:22:59.097Z,19360
2016-05-19T08:23:59.989Z,19520
2016-05-19T08:24:59.180Z,19488
2016-05-19T08:25:59.182Z,19328
2016-05-19T08:27:59.250Z,21568
2016-05-19T08:29:13.456Z,22432
2016-05-19T08:29:59.303Z,20608
2016-05-19T08:30:59.180Z,19584
2016-05-19T08:32:13.558Z,19232
2016-05-19T08:32:59.233Z,19552
2016-05-19T08:33:59.422Z,19584
2016-05-19T08:34:59.286Z,20416
2016-05-19T08:36:13.663Z,21984
2016-05-19T08:36:59.525Z,22784
2016-05-19T08:37:59.543Z,21408
2016-05-19T08:38:59.811Z,21152
2016-05-19T08:39:59.595Z,20160
2016-05-19T08:41:13.816Z,19840
2016-05-19T08:41:59.648Z,19808
2016-05-19T08:43:13.885Z,20576
2016-05-19T08:43:59.732Z,22144
2016-05-19T08:44:59.765Z,22592
2016-05-19T08:45:59.784Z,22592
2016-05-19T08:47:13.832Z,22560
2016-05-19T08:48:14.039Z,21248
2016-05-19T08:49:28.244Z,20832
2016-05-19T08:49:59.590Z,21024
2016-05-19T08:50:59.953Z,21984
2016-05-19T08:51:59.831Z,21280
2016-05-19T08:53:00.005Z,21248
2016-05-19T08:54:00.023Z,21856
2016-05-19T08:55:00.120Z,22816
2016-05-19T08:55:59.951Z,21760
2016-05-19T08:57:00.125Z,23008
2016-05-19T08:58:00.159Z,22272
2016-05-19T08:59:14.380Z,23264
2016-05-19T09:00:00.227Z,20960
2016-05-19T09:01:00.261Z,20896
2016-05-19T09:01:59.967Z,20192
2016-05-19T09:03:00.314Z,21600
2016-05-19T09:04:00.207Z,20896
2016-05-19T09:05:14.553Z,18912
2016-05-19T09:06:00.431Z,20896
2016-05-19T09:07:00.293Z,20512
2016-05-19T09:08:00.482Z,20448
2016-05-19T09:09:00.563Z,20288
2016-05-19T09:10:00.551Z,19616
2016-05-19T09:11:00.585Z,19424
2016-05-19T09:12:00.618Z,18848
2016-05-19T09:13:00.653Z,18496
2016-05-19T09:14:00.515Z,18208
2016-05-19T09:15:00.704Z,17728
2016-05-19T09:16:00.427Z,17312
2016-05-19T09:17:00.773Z,16704
2016-05-19T09:18:00.651Z,16224
2016-05-19T09:19:00.840Z,15844
2016-05-19T09:20:00.876Z,15520
2016-05-19T09:21:15.096Z,15124
2016-05-19T09:22:00.942Z,14916
2016-05-19T09:23:15.164Z,14840
2016-05-19T09:24:01.026Z,14872
2016-05-19T09:25:01.029Z,14688
2016-05-19T09:26:00.922Z,14608
2016-05-19T09:27:01.128Z,14468
2016-05-19T09:28:01.005Z,14344
2016-05-19T09:29:01.164Z,14320
2016-05-19T09:30:01.214Z,14236
2016-05-19T09:31:15.420Z,14160
2016-05-19T09:32:01.283Z,14056
2016-05-19T09:33:01.144Z,13856
2016-05-19T09:34:15.522Z,13804
2016-05-19T09:35:01.368Z,13784
2016-05-19T09:36:01.418Z,13676
2016-05-19T09:37:15.623Z,13652
2016-05-19T09:38:01.470Z,13584
2016-05-19T09:39:01.755Z,13452
2016-05-19T09:40:01.538Z,13392
2016-05-19T09:41:01.572Z,13348
2016-05-19T09:42:15.793Z,13328
2016-05-19T09:43:01.640Z,13344
2016-05-19T09:44:01.674Z,13248
2016-05-19T09:45:01.707Z,13048
2016-05-19T09:46:01.585Z,12844
2016-05-19T09:47:01.776Z,12940
2016-05-19T09:48:01.638Z,13024
2016-05-19T09:49:01.828Z,13060
2016-05-19T09:50:01.893Z,13076
2016-05-19T09:51:01.912Z,13116
2016-05-19T09:52:16.117Z,13140
2016-05-19T09:53:01.979Z,13088
2016-05-19T09:54:01.998Z,13072
2016-05-19T09:55:02.078Z,12916
2016-05-19T09:56:02.065Z,12836
2016-05-19T09:57:02.100Z,12676
2016-05-19T09:58:02.133Z,12644
2016-05-19T09:59:02.151Z,12508
2016-05-19T10:00:02.201Z,12000
2016-05-19T10:01:02.235Z,11828
2016-05-19T10:02:02.253Z,11788
2016-05-19T10:03:02.287Z,12012
2016-05-19T10:04:02.322Z,12192
2016-05-19T10:05:02.355Z,12520
2016-05-19T10:06:02.389Z,12500
2016-05-19T10:07:02.423Z,12724
2016-05-19T10:08:02.458Z,12612
2016-05-19T10:09:02.803Z,12368
2016-05-19T10:10:02.369Z,11872
2016-05-19T10:11:02.558Z,10188
2016-05-19T10:12:02.608Z,11752
2016-05-19T10:13:02.643Z,9420
2016-05-19T10:14:02.677Z,7044
2016-05-19T10:15:02.679Z,10136
2016-05-19T10:16:02.557Z,7460
2016-05-19T10:17:02.747Z,12056
2016-05-19T10:18:02.781Z,12108
2016-05-19T10:19:02.815Z,11996
2016-05-19T10:20:02.849Z,11996
2016-05-19T10:21:02.727Z,11996
2016-05-19T10:22:02.745Z,11996
2016-05-19T10:23:02.935Z,12048
2016-05-19T10:24:17.015Z,12088
2016-05-19T10:25:03.003Z,12224
2016-05-19T10:26:03.037Z,12256
2016-05-19T10:27:03.071Z,12340
2016-05-19T10:28:03.104Z,12392
2016-05-19T10:29:03.139Z,12328
2016-05-19T10:30:03.157Z,12256
2016-05-19T10:31:17.378Z,12244
2016-05-19T10:32:03.225Z,12292
2016-05-19T10:33:03.259Z,12356
2016-05-19T10:34:03.293Z,12336
2016-05-19T10:35:02.998Z,12288
2016-05-19T10:36:03.205Z,12252
2016-05-19T10:37:03.378Z,12244
2016-05-19T10:38:03.256Z,12340
2016-05-19T10:39:03.259Z,12408
2016-05-19T10:40:17.653Z,12524
2016-05-19T10:41:03.514Z,12532
2016-05-19T10:42:03.533Z,12580
2016-05-19T10:43:03.427Z,12636
2016-05-19T10:44:03.460Z,11332
2016-05-19T10:45:03.479Z,10220
2016-05-19T10:47:03.547Z,9608
2016-05-19T10:51:03.823Z,11728
2016-05-19T10:52:03.857Z,11552
2016-05-19T10:53:03.876Z,12328
2016-05-19T10:54:03.768Z,12228
2016-05-19T10:55:03.943Z,12112
2016-05-19T10:56:18.165Z,11976
2016-05-19T10:57:04.011Z,11840
2016-05-19T10:58:04.044Z,11852
2016-05-19T10:59:04.079Z,11708
2016-05-19T11:00:04.098Z,10808
2016-05-19T11:01:04.131Z,11892
2016-05-19T11:02:04.165Z,11884
2016-05-19T11:04:04.217Z,11500
2016-05-19T11:05:04.266Z,11836
2016-05-19T11:06:04.128Z,11560
2016-05-19T11:07:04.163Z,10788
2016-05-19T11:08:04.181Z,8464
2016-05-19T11:09:18.403Z,10804
2016-05-19T11:10:04.405Z,9396
2016-05-19T11:11:04.438Z,7964
2016-05-19T11:12:32.676Z,8456
2016-05-19T11:13:04.336Z,8220
2016-05-19T11:14:04.213Z,8904
2016-05-19T11:15:04.560Z,8232
2016-05-19T11:16:04.437Z,8336
2016-05-19T11:17:04.471Z,8536
2016-05-19T11:18:18.832Z,10052
2016-05-19T11:19:04.679Z,10624
2016-05-19T11:20:04.713Z,10556
2016-05-19T11:21:18.935Z,10456
2016-05-19T11:22:04.765Z,10516
2016-05-19T11:23:04.815Z,10456
2016-05-19T11:24:05.005Z,10468
2016-05-19T11:25:04.899Z,9636
2016-05-19T11:27:19.123Z,10112
2016-05-19T11:28:04.954Z,8752
2016-05-19T11:29:19.207Z,8476
2016-05-19T11:30:04.865Z,8304
2016-05-19T11:31:04.899Z,7596
2016-05-19T11:33:05.108Z,8148
2016-05-19T11:34:05.141Z,9180
2016-05-19T11:35:04.863Z,9720
2016-05-19T11:36:05.209Z,10152
2016-05-19T11:37:19.415Z,10328
2016-05-19T11:38:05.105Z,9272
2016-05-19T11:39:05.311Z,10144
2016-05-19T11:40:05.329Z,8484
2016-05-19T11:41:05.347Z,8816
2016-05-19T11:42:05.383Z,9772
2016-05-19T11:43:05.416Z,9656
2016-05-19T11:44:05.293Z,8656
2016-05-19T11:45:05.468Z,9356
2016-05-19T11:46:05.486Z,9912
2016-05-19T11:48:05.491Z,9808
2016-05-19T11:49:05.565Z,9652
2016-05-19T11:50:19.813Z,9624
2016-05-19T11:51:20.026Z,9572
2016-05-19T11:52:05.890Z,9632
2016-05-19T11:54:06.002Z,9240
2016-05-19T11:55:06.035Z,9728
2016-05-19T11:56:06.068Z,9704
2016-05-19T11:57:06.108Z,9568
2016-05-19T11:59:20.468Z,9796
2016-05-19T12:00:06.055Z,10252
2016-05-19T12:01:06.250Z,10140
2016-05-19T12:02:20.318Z,9776
2016-05-19T12:03:06.150Z,9832
2016-05-19T12:04:06.185Z,9708
2016-05-19T12:05:06.393Z,9812
2016-05-19T12:06:06.414Z,9600
2016-05-19T12:07:06.432Z,9372
2016-05-19T12:08:06.311Z,9256
2016-05-19T12:09:06.908Z,9148
2016-05-19T12:10:06.380Z,9428
2016-05-19T12:11:06.415Z,8912
2016-05-19T12:12:06.621Z,9204
2016-05-19T12:13:20.812Z,9640
2016-05-19T12:14:06.674Z,9308
2016-05-19T12:15:21.880Z,9208
2016-05-19T12:16:06.556Z,9524
2016-05-19T12:17:06.746Z,7788
2016-05-19T12:18:06.796Z,7152
2016-05-19T12:19:06.642Z,6452
2016-05-19T12:20:06.832Z,6540
2016-05-19T12:21:06.865Z,7808
2016-05-19T12:22:06.743Z,6928
2016-05-19T12:23:06.934Z,6916
2016-05-19T12:24:06.812Z,6672
2016-05-19T12:25:06.985Z,6432
2016-05-19T12:26:07.020Z,6112
2016-05-19T12:27:21.070Z,6040
2016-05-19T12:28:06.932Z,6064
2016-05-19T12:29:07.106Z,6040
2016-05-19T12:30:07.124Z,6044
2016-05-19T12:31:21.346Z,6052
2016-05-19T12:32:07.224Z,6060
2016-05-19T12:33:21.414Z,6116
2016-05-19T12:34:07.245Z,6168
2016-05-19T12:35:07.278Z,6432
2016-05-19T12:36:07.156Z,6260
2016-05-19T12:37:07.347Z,6496
2016-05-19T12:38:21.396Z,6652
2016-05-19T12:39:07.398Z,7100
2016-05-19T12:40:21.605Z,6700
2016-05-19T12:41:07.451Z,6752
2016-05-19T12:42:07.486Z,6828
2016-05-19T12:43:07.519Z,6900
2016-05-19T12:44:07.553Z,6936
2016-05-19T12:45:07.571Z,6908
2016-05-19T12:46:07.605Z,6856
2016-05-19T12:47:21.655Z,6832
2016-05-19T12:48:07.516Z,7000
2016-05-19T12:49:07.535Z,7060
2016-05-19T12:50:07.413Z,7172
2016-05-19T12:51:07.603Z,7324
2016-05-19T12:52:07.793Z,7428
2016-05-19T12:54:08.705Z,7512
2016-05-19T12:55:07.910Z,7564
2016-05-19T12:56:07.741Z,7600
2016-05-19T12:57:07.760Z,7616
2016-05-19T12:58:07.949Z,7652
2016-05-19T12:59:07.828Z,7676
2016-05-19T13:00:07.862Z,7680
2016-05-19T13:01:08.052Z,7692
2016-05-19T13:02:22.242Z,7952
2016-05-19T13:03:08.104Z,7884
2016-05-19T13:04:08.153Z,7812
2016-05-19T13:05:22.203Z,7896
2016-05-19T13:06:08.190Z,7996
2016-05-19T13:07:08.224Z,8360
2016-05-19T13:08:08.243Z,9588
2016-05-19T13:09:08.589Z,8616
2016-05-19T13:12:08.347Z,7812
2016-05-19T13:13:08.381Z,7676
2016-05-19T13:14:08.259Z,7580
2016-05-19T13:15:08.449Z,7360
2016-05-19T13:16:08.482Z,7160
2016-05-19T13:17:08.188Z,6964
2016-05-19T13:19:08.413Z,6780
2016-05-19T13:20:08.603Z,6720
2016-05-19T13:21:08.465Z,6648
2016-05-19T13:22:08.655Z,6584
2016-05-19T13:23:08.533Z,6564
2016-05-19T13:24:09.144Z,6520
2016-05-19T13:25:08.757Z,6480
2016-05-19T13:26:22.947Z,6452
2016-05-19T13:27:08.638Z,6504
2016-05-19T13:28:08.672Z,6616
2016-05-19T13:29:08.861Z,7748
2016-05-19T13:30:08.879Z,6320
2016-05-19T13:31:08.913Z,6052
2016-05-19T13:32:08.948Z,5868
2016-05-19T13:33:08.965Z,5724
2016-05-19T13:34:23.187Z,5556
2016-05-19T13:35:08.878Z,5428
2016-05-19T13:36:09.052Z,5288
2016-05-19T13:37:09.086Z,5164
2016-05-19T13:39:09.014Z,4996
2016-05-19T13:40:09.016Z,4984
2016-05-19T13:41:09.190Z,4976
2016-05-19T13:42:23.397Z,4924
2016-05-19T13:43:09.275Z,4872
2016-05-19T13:44:09.277Z,4816
2016-05-19T13:46:09.345Z,4772
2016-05-19T13:47:09.378Z,4776
2016-05-19T13:48:09.397Z,4748
2016-05-19T13:49:09.431Z,4716
2016-05-19T13:50:23.652Z,4712
2016-05-19T13:51:09.499Z,4716
2016-05-19T13:52:09.517Z,4700
2016-05-19T13:53:09.394Z,4672
2016-05-19T13:54:09.647Z,4584
2016-05-19T13:57:09.499Z,4384
2016-05-19T13:58:09.674Z,4336
2016-05-19T13:59:09.707Z,4332
2016-05-19T14:00:09.741Z,4328
2016-05-19T14:01:09.603Z,4312
2016-05-19T14:02:09.638Z,4256
2016-05-19T14:03:09.812Z,4192
2016-05-19T14:04:09.690Z,4220
2016-05-19T14:05:23.896Z,4312
2016-05-19T14:06:24.086Z,4328
2016-05-19T14:07:09.932Z,4320
2016-05-19T14:08:09.809Z,4300
2016-05-19T14:09:10.000Z,4260
2016-05-19T14:10:10.019Z,4236
2016-05-19T14:11:10.068Z,4212
2016-05-19T14:12:09.961Z,4180
2016-05-19T14:13:10.121Z,4180
2016-05-19T14:14:10.139Z,4160
2016-05-19T14:15:10.000Z,4160
2016-05-19T14:16:10.035Z,4200
2016-05-19T14:17:10.069Z,4212
2016-05-19T14:18:10.244Z,4204
2016-05-19T14:19:10.277Z,4192
2016-05-19T14:20:10.311Z,4200
2016-05-19T14:21:10.314Z,4224